Terminal Aerodrome Forecast
Issued by NWS Houston/Galveston, TX

Home | Current Version | Previous Version | Text Only | Print | Product List | Glossary On
Versions: 1 2 3 4 5 6 7 8 9 10 11 12 13 14 15 16 17 18 19 20 21 22 23 24 25 26 27 28 29 30 31 32 33
000
FTUS44 KHGX 271740
TAFGLS
TAF
KGLS 271740Z 2718/2818 17011KT 4SM HZ SCT009 BKN014 OVC027
      TEMPO 2719/2723 6SM HZ FEW025
     FM272300 15008KT 5SM HZ SCT020
      TEMPO 2802/2805 BKN018
     FM280800 16009KT P6SM BKN020
     FM281400 17012KT 6SM HZ SCT020=

USA.gov is the U.S. government's official web portal to all federal, state and local government web resources and services.